• Join FlightAware (Why Join?)
  • Login
  • US Flag 
12:09PM EDT


 

Airport Tracker/Info


-or-


 

Live Flight TrackerFlight Track Log ✈ N704JM ✈ 01-Oct-2013 ✈ KAID - KMGM

Flight Track Log - Related Links

Times and Time Zones

All times are in EDT time to prevent confusion due to time zone crossing. See the N704JM flight status page for this flight to view local times or setup timezone preferences in your user account.

Time Position Orientation Groundspeed Altitude Reporting Facility
EDT Latitude Longitude Course Direction KTS MPH feet Rate Location/Type
05:43PM 40.1167 -85.6333 250° West 115 132 2,100  Level Indianapolis TRACON
05:44PM 40.0964 -85.7072 250° West 270 311 3,000 360 Climbing Indianapolis Center
05:45PM 40.0158 -85.7303 192° South 252 290 3,000 840 Level Indianapolis Center
05:46PM 39.9467 -85.7472 191° South 250 288 4,800 1,680 Climbing Indianapolis Center
05:47PM 39.8669 -85.7664 190° South 270 311 6,600 1,200 Climbing Indianapolis Center
05:48PM 39.7869 -85.7867 191° South 285 328 7,400 1,320 Climbing Indianapolis Center
05:49PM 39.7058 -85.8056 190° South 293 337 9,400 2,160 Climbing Indianapolis Center
05:50PM 39.6192 -85.8256 190° South 310 357 11,900 1,920 Climbing Indianapolis Center
05:51PM 39.5214 -85.8153 175° South 349 402 13,400 1,980 Climbing Indianapolis Center
05:52PM 39.3956 -85.8069 177° South 371 427 16,100 2,280 Climbing Indianapolis Center
05:53PM 39.2897 -85.7986 177° South 378 435 18,200 1,920 Climbing Indianapolis Center
05:54PM 39.1814 -85.7903 177° South 386 444 20,100 1,680 Climbing Indianapolis Center
05:55PM 39.0722 -85.7817 176° South 392 451 21,700 1,500 Climbing Indianapolis Center
05:56PM 38.9597 -85.7742 177° South 400 460 23,200 1,380 Climbing Indianapolis Center
05:57PM 38.8436 -85.7697 178° South 412 474 24,600 1,980 Climbing Indianapolis Center
05:58PM 38.7086 -85.7850 185° South 407 468 27,400 1,620 Climbing Indianapolis Center
05:59PM 38.6039 -85.7961 185° South 401 461 28,000 720 Climbing Indianapolis Center
06:00PM 38.4778 -85.8094 185° South 435 501 28,900 1,680 Climbing Indianapolis Center
06:01PM 38.3561 -85.8203 184° South 440 506 31,500 2,040 Climbing Indianapolis Center
06:02PM 38.2417 -85.8328 185° South 418 481 33,200 1,800 Climbing Indianapolis Center
06:03PM 38.1078 -85.8472 185° South 402 463 35,300 1,320 Climbing Indianapolis Center
06:05PM 37.9958 -85.8578 184° South 400 460 36,000 300 Climbing Indianapolis Center
06:06PM 37.8772 -85.8692 184° South 417 480 36,000  Level Indianapolis Center
06:07PM 37.7514 -85.8819 185° South 443 510 36,000  Level Indianapolis Center
06:08PM 37.6258 -85.8947 185° South 448 516 36,000  Level Indianapolis Center
06:09PM 37.4925 -85.9083 185° South 446 513 36,000  Level Indianapolis Center
06:10PM 37.3672 -85.9219 185° South 447 514 36,000  Level Indianapolis Center
06:11PM 37.2417 -85.9347 185° South 448 516 36,000  Level Indianapolis Center
06:12PM 37.1164 -85.9467 184° South 445 512 36,000  Level Indianapolis Center
06:13PM 36.9697 -85.9611 184° South 447 514 36,000  Level Indianapolis Center
06:14PM 36.8453 -85.9725 184° South 445 512 36,000  Level Indianapolis Center
06:15PM 36.7194 -85.9853 185° South 446 513 36,000  Level Indianapolis Center
06:16PM 36.5950 -85.9969 184° South 445 512 36,000  Level Indianapolis Center
06:17PM 36.4689 -86.0094 185° South 446 513 36,000  Level Indianapolis Center
06:18PM 36.3600 -86.0172 183° South 449 517 36,000  Level Memphis Center
06:19PM 36.2353 -86.0292 184° South 449 517 36,000  Level Memphis Center
06:20PM 36.1106 -86.0433 185° South 449 517 36,000  Level Memphis Center
06:21PM 35.9858 -86.0550 184° South 449 517 36,000  Level Memphis Center
06:22PM 35.8778 -86.0658 185° South 449 517 36,000  Level Memphis Center
06:23PM 35.7531 -86.0775 184° South 449 517 36,000  Level Memphis Center
06:25PM 35.4422 -86.1086 185° South 449 517 36,000 -60 Level Atlanta Center
06:27PM 35.3132 -86.1275 191° South  Level FlightAware Approximate
06:29PM 34.9444 -86.1722 206° Southwest 441 507 35,700  Level Atlanta Center
06:30PM 34.8211 -86.1869 186° South 446 513 34,300 -1,380 Descending Atlanta Center
06:31PM 34.6978 -86.2039 186° South 446 513 33,000 -900 Descending Atlanta Center
06:32PM 34.5764 -86.2211 187° South 446 513 32,500 -960 Descending Atlanta Center
06:33PM 34.4508 -86.2353 185° South 446 513 31,100 -780 Descending Atlanta Center
06:34PM 34.6059 -86.3221 206° Southwest  Level FlightAware Approximate
06:34PM 34.3275 -86.2522 186° South 446 513 31,000  Level Atlanta Center
06:35PM 34.5123 -86.3772 206° Southwest  Level FlightAware Approximate
06:35PM 34.2039 -86.2692 186° South 451 519 31,000  Level Atlanta Center
06:36PM 34.0786 -86.2858 186° South 451 519 30,400 -1,440 Descending Atlanta Center
06:37PM 33.9531 -86.3003 185° South 451 519 28,200 -2,100 Descending Atlanta Center
06:38PM 33.8317 -86.3194 187° South 446 513 26,200 -1,140 Descending Atlanta Center
06:39PM 33.7144 -86.3339 186° South 441 507 26,000 -180 Descending Atlanta Center
06:40PM 33.5931 -86.3481 186° South 441 507 25,900 -600 Descending Atlanta Center
06:41PM 33.4886 -86.3628 187° South 441 507 24,900 -960 Descending Atlanta Center
06:42PM 33.3797 -86.3772 186° South 422 486 24,000 -600 Descending Atlanta Center
06:43PM 33.2689 -86.3917 186° South 404 465 23,700 -1,200 Descending Atlanta Center
06:44PM 33.1578 -86.4036 185° South 404 465 21,600 -2,460 Descending Atlanta Center
06:45PM 33.0428 -86.4178 186° South 410 472 18,800 -2,040 Descending Atlanta Center
06:46PM 32.9278 -86.4269 184° South 410 472 17,600 -1,560 Descending Atlanta Center
06:47PM 32.8150 -86.4364 184° South 410 472 15,700 -2,040 Descending Atlanta Center
06:48PM 32.7061 -86.4556 188° South 404 465 13,600 -2,460 Descending Atlanta Center
06:49PM 32.6139 -86.4728 189° South 377 434 10,800 -2,280 Descending Atlanta Center
06:50PM 32.5342 -86.4878 189° South 337 388 9,100 -2,400 Descending Atlanta Center
06:51PM 32.4547 -86.5053 191° South 307 353 6,000 -3,000 Descending Atlanta Center
06:52PM 32.3728 -86.5228 190° South 296 341 3,100 -1,500 Descending Atlanta Center
06:53PM 32.3164 -86.5308 187° South 267 307 3,100 -780 Level Atlanta Center
06:54PM 32.3089 -86.4867 101° East 139 160 1,600 -1,200 Descending Atlanta Center
06:55PM 32.3056 -86.4447 95° East 116 133 800 -840 Descending Atlanta Center
06:57PM 32.3006 -86.3940 90° East  Level Estimated
07:04PM 32.3006 -86.3940 90° East  Level Estimated
07:05PM 32.3006 -86.3940 90° East  Level Estimated